createdAt,value
2017-09-08T00:01:16.444Z,69.20
2017-09-08T00:03:46.095Z,69.02
2017-09-08T00:06:17.436Z,69.10
2017-09-08T00:08:46.997Z,68.82
2017-09-08T00:11:16.624Z,69.09
2017-09-08T00:13:46.459Z,69.07
2017-09-08T00:16:16.212Z,69.26
2017-09-08T00:18:45.703Z,69.15
2017-09-08T00:21:15.647Z,69.45
2017-09-08T00:23:46.183Z,69.47
2017-09-08T00:26:15.772Z,69.64
2017-09-08T00:28:45.576Z,69.41
2017-09-08T00:31:15.400Z,69.72
2017-09-08T00:33:44.903Z,69.73
2017-09-08T00:36:15.359Z,69.73
2017-09-08T00:38:44.962Z,69.51
2017-09-08T00:41:15.784Z,69.64
2017-09-08T00:43:45.782Z,69.65
2017-09-08T00:46:15.275Z,69.68
2017-09-08T00:48:44.826Z,69.85
2017-09-08T00:51:15.532Z,69.79
2017-09-08T00:53:44.929Z,69.85
2017-09-08T00:56:14.967Z,69.92
2017-09-08T00:58:44.923Z,70.19
2017-09-08T01:01:14.495Z,69.96
2017-09-08T01:03:43.979Z,70.19
2017-09-08T01:06:14.868Z,70.15
2017-09-08T01:08:44.581Z,70.13
2017-09-08T01:11:15.014Z,70.23
2017-09-08T01:13:45.481Z,70.38
2017-09-08T01:16:15.244Z,70.25
2017-09-08T01:18:44.595Z,70.63
2017-09-08T01:21:15.719Z,70.38
2017-09-08T01:23:45.295Z,70.75
2017-09-08T01:26:15.444Z,70.61
2017-09-08T01:28:45.287Z,70.50
2017-09-08T01:31:14.762Z,70.65
2017-09-08T01:33:44.481Z,70.66
2017-09-08T01:36:15.529Z,71.19
2017-09-08T01:38:44.865Z,71.06
2017-09-08T01:41:15.112Z,70.92
2017-09-08T01:43:45.066Z,71.87
2017-09-08T01:46:15.959Z,71.08
2017-09-08T01:48:46.808Z,71.13
2017-09-08T01:51:16.844Z,70.98
2017-09-08T01:53:46.446Z,70.90
2017-09-08T01:56:15.747Z,70.93
2017-09-08T01:58:46.126Z,71.04
2017-09-08T02:01:15.714Z,70.55
2017-09-08T02:03:45.467Z,70.62
2017-09-08T02:06:15.310Z,70.65
2017-09-08T02:08:46.158Z,70.84
2017-09-08T02:11:16.178Z,70.92
2017-09-08T02:13:47.191Z,71.37
2017-09-08T02:16:16.688Z,71.26
2017-09-08T02:18:46.183Z,71.25
2017-09-08T02:21:17.354Z,71.34
2017-09-08T02:23:46.676Z,71.55
2017-09-08T02:26:16.450Z,71.55
2017-09-08T02:28:46.283Z,71.63
2017-09-08T02:31:15.891Z,71.67
2017-09-08T02:33:45.423Z,71.65
2017-09-08T02:36:15.203Z,71.83
2017-09-08T02:38:44.897Z,72.00
2017-09-08T02:41:14.827Z,71.79
2017-09-08T02:43:44.739Z,71.91
2017-09-08T02:46:14.628Z,72.07
2017-09-08T02:48:44.075Z,72.15
2017-09-08T02:51:15.695Z,73.15
2017-09-08T02:53:45.352Z,72.59
2017-09-08T02:56:14.992Z,72.46
2017-09-08T02:58:44.556Z,72.35
2017-09-08T03:01:14.987Z,71.92
2017-09-08T03:03:44.552Z,71.66
2017-09-08T03:06:15.226Z,71.85
2017-09-08T03:08:45.099Z,71.73
2017-09-08T03:11:14.991Z,71.20
2017-09-08T03:13:44.387Z,71.47
2017-09-08T03:16:14.756Z,71.42
2017-09-08T03:18:44.766Z,70.93
2017-09-08T03:21:15.064Z,71.18
2017-09-08T03:23:44.622Z,71.00
2017-09-08T03:26:14.735Z,71.11
2017-09-08T03:28:44.623Z,71.12
2017-09-08T03:31:14.461Z,71.25
2017-09-08T03:33:44.166Z,71.20
2017-09-08T03:36:14.867Z,71.29
2017-09-08T03:38:44.770Z,71.40
2017-09-08T03:41:15.679Z,71.10
2017-09-08T03:43:45.115Z,71.16
2017-09-08T03:46:15.251Z,71.49
2017-09-08T03:48:44.999Z,71.50
2017-09-08T03:51:14.780Z,71.35
2017-09-08T03:53:43.979Z,71.77
2017-09-08T03:56:14.883Z,71.42
2017-09-08T03:58:44.080Z,71.62
2017-09-08T04:01:14.344Z,71.83
2017-09-08T04:03:43.875Z,71.74
2017-09-08T04:06:15.308Z,71.70
2017-09-08T04:08:44.823Z,71.83
2017-09-08T04:11:14.736Z,71.99
2017-09-08T04:13:44.854Z,71.98
2017-09-08T04:16:14.395Z,72.03
2017-09-08T04:18:43.888Z,71.81
2017-09-08T04:21:15.475Z,72.06
2017-09-08T04:23:45.277Z,71.98
2017-09-08T04:26:14.880Z,71.94
2017-09-08T04:28:44.463Z,71.94
2017-09-08T04:31:15.274Z,71.58
2017-09-08T04:33:44.824Z,71.55
2017-09-08T04:36:14.567Z,71.29
2017-09-08T04:38:45.194Z,71.27
2017-09-08T04:41:15.472Z,71.44
2017-09-08T04:43:45.296Z,71.46
2017-09-08T04:46:14.782Z,71.53
2017-09-08T04:48:45.055Z,71.39
2017-09-08T04:51:14.697Z,71.43
2017-09-08T04:53:44.355Z,71.39
2017-09-08T04:56:17.302Z,71.76
2017-09-08T04:58:47.044Z,71.55
2017-09-08T05:01:16.499Z,71.51
2017-09-08T05:03:46.066Z,71.54
2017-09-08T05:06:15.703Z,71.62
2017-09-08T05:08:45.079Z,71.82
2017-09-08T05:11:14.827Z,71.63
2017-09-08T05:13:44.503Z,71.57
2017-09-08T05:16:17.079Z,71.96
2017-09-08T05:18:46.708Z,71.44
2017-09-08T05:21:16.239Z,71.81
2017-09-08T05:23:45.892Z,71.87
2017-09-08T05:26:15.392Z,71.85
2017-09-08T05:28:44.694Z,71.91
2017-09-08T05:31:14.548Z,71.95
2017-09-08T05:33:44.430Z,72.00
2017-09-08T05:36:14.725Z,72.00
2017-09-08T05:38:43.924Z,71.90
2017-09-08T05:41:14.503Z,71.73
2017-09-08T05:43:43.698Z,71.85
2017-09-08T05:46:14.211Z,71.93
2017-09-08T05:48:44.075Z,71.83
2017-09-08T05:51:16.275Z,71.58
2017-09-08T05:55:12.540Z,72.11
2017-09-08T05:57:41.738Z,71.44
2017-09-08T06:00:13.114Z,71.47
2017-09-08T06:02:42.458Z,71.52
2017-09-08T06:05:12.928Z,71.73
2017-09-08T06:07:42.815Z,71.59
2017-09-08T06:10:14.067Z,71.66
2017-09-08T06:12:43.361Z,71.59
2017-09-08T06:15:20.564Z,71.39
2017-09-08T06:17:49.775Z,71.25
2017-09-08T06:20:19.267Z,71.23
2017-09-08T06:22:48.428Z,71.00
2017-09-08T06:25:19.016Z,70.84
2017-09-08T06:27:48.463Z,71.01
2017-09-08T06:30:17.643Z,70.91
2017-09-08T06:32:47.320Z,70.98
2017-09-08T06:35:16.863Z,71.23
2017-09-08T06:37:46.081Z,70.16
2017-09-08T06:40:15.571Z,70.30
2017-09-08T06:42:45.054Z,69.65
2017-09-08T06:45:15.275Z,69.57
2017-09-08T06:47:44.500Z,69.35
2017-09-08T06:50:15.203Z,69.51
2017-09-08T06:52:44.459Z,70.28
2017-09-08T06:55:15.584Z,69.19
2017-09-08T06:57:45.559Z,68.66
2017-09-08T07:00:15.023Z,68.02
2017-09-08T07:02:44.211Z,68.06
2017-09-08T07:05:14.959Z,67.88
2017-09-08T07:07:44.130Z,67.37
2017-09-08T07:10:14.749Z,67.05
2017-09-08T07:12:44.219Z,67.35
2017-09-08T07:15:15.130Z,67.37
2017-09-08T07:17:44.339Z,66.77
2017-09-08T07:20:15.119Z,65.77
2017-09-08T07:22:44.487Z,65.34
2017-09-08T07:25:14.631Z,64.50
2017-09-08T07:27:44.339Z,64.42
2017-09-08T07:30:15.067Z,63.69
2017-09-08T07:32:44.759Z,63.51
2017-09-08T07:35:15.138Z,63.65
2017-09-08T07:37:44.429Z,63.64
2017-09-08T07:40:15.359Z,64.45
2017-09-08T07:42:45.119Z,62.97
2017-09-08T07:45:15.387Z,63.43
2017-09-08T07:47:44.896Z,63.43
2017-09-08T07:50:15.444Z,63.15
2017-09-08T07:52:44.928Z,63.21
2017-09-08T07:55:15.239Z,64.62
2017-09-08T07:57:44.923Z,62.92
2017-09-08T08:00:16.846Z,62.69
2017-09-08T08:02:46.545Z,62.86
2017-09-08T08:05:16.288Z,62.31
2017-09-08T08:07:45.622Z,61.05
2017-09-08T08:10:15.593Z,61.61
2017-09-08T08:12:45.236Z,60.80
2017-09-08T08:15:15.399Z,60.22
2017-09-08T08:17:45.451Z,59.48
2017-09-08T08:20:15.418Z,59.35
2017-09-08T08:22:46.031Z,59.79
2017-09-08T08:25:15.727Z,59.18
2017-09-08T08:27:45.500Z,57.97
2017-09-08T08:30:15.704Z,57.83
2017-09-08T08:32:45.286Z,58.10
2017-09-08T08:35:15.548Z,57.83
2017-09-08T08:37:45.191Z,58.07
2017-09-08T08:40:14.415Z,57.33
2017-09-08T08:42:44.111Z,58.22
2017-09-08T08:45:19.767Z,56.97
2017-09-08T08:47:49.158Z,57.72
2017-09-08T08:50:18.830Z,57.89
2017-09-08T08:52:48.012Z,56.50
2017-09-08T08:55:17.254Z,56.98
2017-09-08T08:57:47.135Z,57.03
2017-09-08T09:00:16.346Z,56.20
2017-09-08T09:02:45.534Z,56.71
2017-09-08T09:05:14.995Z,55.93
2017-09-08T09:10:08.734Z,56.49
2017-09-08T09:12:39.210Z,55.22
2017-09-08T09:15:08.447Z,55.95
2017-09-08T09:17:37.671Z,56.47
2017-09-08T09:20:07.286Z,55.97
2017-09-08T09:22:36.890Z,55.96
2017-09-08T09:25:06.186Z,55.56
2017-09-08T09:27:35.661Z,56.38
2017-09-08T09:30:04.774Z,55.37
2017-09-08T09:32:34.033Z,55.34
2017-09-08T09:35:03.531Z,55.24
2017-09-08T09:37:33.657Z,54.83
2017-09-08T09:40:03.087Z,55.33
2017-09-08T09:42:32.628Z,55.06
2017-09-08T09:45:01.806Z,55.21
2017-09-08T09:47:31.013Z,56.46
2017-09-08T09:50:00.495Z,56.21
2017-09-08T09:52:29.700Z,54.93
2017-09-08T09:54:58.858Z,54.58
2017-09-08T09:57:28.398Z,54.81
2017-09-08T09:59:58.895Z,54.21
2017-09-08T10:02:28.151Z,54.53
2017-09-08T10:04:57.662Z,54.14
2017-09-08T10:07:26.870Z,54.22
2017-09-08T10:09:56.122Z,54.23
2017-09-08T10:12:25.590Z,54.05
2017-09-08T10:14:54.838Z,52.59
2017-09-08T10:17:24.772Z,52.39
2017-09-08T10:19:54.259Z,52.25
2017-09-08T10:22:23.415Z,52.60
2017-09-08T10:24:52.627Z,52.78
2017-09-08T10:27:22.250Z,53.21
2017-09-08T10:29:51.434Z,52.21
2017-09-08T10:32:21.937Z,52.30
2017-09-08T10:34:51.472Z,52.46
2017-09-08T10:37:20.712Z,51.96
2017-09-08T10:39:49.990Z,51.91
2017-09-08T10:42:19.583Z,51.44
2017-09-08T10:44:49.135Z,51.50
2017-09-08T10:47:18.406Z,50.25
2017-09-08T10:49:47.905Z,50.02
2017-09-08T10:52:18.169Z,49.43
2017-09-08T10:54:47.318Z,50.37
2017-09-08T10:57:16.875Z,49.59
2017-09-08T10:59:46.166Z,49.60
2017-09-08T11:02:15.402Z,50.12
2017-09-08T11:04:46.367Z,51.28
2017-09-08T11:07:15.589Z,51.18
2017-09-08T11:09:44.779Z,50.28
2017-09-08T11:12:15.415Z,51.42
2017-09-08T11:14:44.623Z,51.84
2017-09-08T11:17:15.270Z,51.50
2017-09-08T11:19:46.271Z,52.62
2017-09-08T11:22:15.571Z,52.36
2017-09-08T11:24:44.771Z,53.18
2017-09-08T11:27:16.110Z,52.74
2017-09-08T11:29:45.351Z,52.22
2017-09-08T11:32:19.214Z,52.57
2017-09-08T11:36:54.846Z,53.67
2017-09-08T11:39:24.363Z,54.31
2017-09-08T11:41:57.120Z,53.83
2017-09-08T11:44:26.495Z,53.77
2017-09-08T11:46:55.808Z,53.21
2017-09-08T11:49:25.533Z,53.65
2017-09-08T11:51:54.955Z,53.34
2017-09-08T11:54:24.340Z,53.47
2017-09-08T11:56:53.887Z,54.37
2017-09-08T11:59:23.235Z,54.24
2017-09-08T12:01:52.619Z,52.13
2017-09-08T12:04:23.276Z,52.25
2017-09-08T12:06:52.972Z,52.95
2017-09-08T12:09:22.957Z,53.08
2017-09-08T12:11:52.644Z,53.68
2017-09-08T12:14:21.951Z,53.19
2017-09-08T12:16:51.274Z,53.21
2017-09-08T12:19:20.931Z,54.09
2017-09-08T12:21:50.154Z,54.31
2017-09-08T12:24:19.427Z,54.05
2017-09-08T12:26:49.428Z,53.56
2017-09-08T12:29:18.828Z,53.17
2017-09-08T12:31:48.069Z,53.57
2017-09-08T12:34:17.600Z,52.15
2017-09-08T12:36:46.789Z,52.03
2017-09-08T12:39:15.971Z,52.38
2017-09-08T12:41:52.334Z,52.35
2017-09-08T12:44:21.611Z,52.70
2017-09-08T12:46:50.823Z,52.38
2017-09-08T12:49:20.544Z,53.20
2017-09-08T12:51:49.803Z,53.32
2017-09-08T12:54:19.661Z,53.00
2017-09-08T12:56:49.998Z,53.12
2017-09-08T12:59:20.608Z,52.85
2017-09-08T13:01:49.858Z,52.02
2017-09-08T13:04:19.698Z,53.29
2017-09-08T13:06:48.884Z,53.44
2017-09-08T13:09:18.275Z,52.81
2017-09-08T13:11:47.871Z,52.56
2017-09-08T13:14:17.190Z,52.57
2017-09-08T13:16:46.743Z,53.18
2017-09-08T13:19:16.351Z,53.76
2017-09-08T13:21:45.763Z,53.37
2017-09-08T13:24:15.171Z,53.97
2017-09-08T13:26:44.760Z,53.94
2017-09-08T13:29:17.072Z,53.22
2017-09-08T13:31:46.984Z,54.11
2017-09-08T13:34:16.788Z,53.86
2017-09-08T13:36:46.331Z,54.54
2017-09-08T13:39:15.635Z,53.85
2017-09-08T13:41:46.155Z,54.67
2017-09-08T13:44:15.331Z,54.31
2017-09-08T13:46:44.647Z,54.37
2017-09-08T13:49:14.404Z,55.25
2017-09-08T13:51:43.691Z,54.34
2017-09-08T13:54:13.853Z,54.40
2017-09-08T13:56:43.800Z,54.79
2017-09-08T13:59:13.667Z,54.82
2017-09-08T14:01:43.040Z,54.94
2017-09-08T14:04:14.643Z,54.41
2017-09-08T14:06:43.910Z,55.21
2017-09-08T14:09:13.195Z,55.04
2017-09-08T14:11:42.716Z,55.79
2017-09-08T14:14:14.538Z,55.89
2017-09-08T14:16:43.787Z,55.18
2017-09-08T14:19:14.103Z,55.47
2017-09-08T14:21:43.271Z,55.42
2017-09-08T14:24:12.540Z,56.09
2017-09-08T14:26:42.271Z,56.39
2017-09-08T14:29:11.630Z,56.56
2017-09-08T14:31:40.818Z,56.55
2017-09-08T14:34:11.994Z,56.50
2017-09-08T14:36:41.281Z,56.87
2017-09-08T14:39:10.692Z,56.92
2017-09-08T14:41:40.634Z,56.88
2017-09-08T14:44:09.992Z,56.32
2017-09-08T14:46:39.163Z,56.31
2017-09-08T14:49:08.960Z,56.52
2017-09-08T14:51:38.919Z,56.29
2017-09-08T14:54:09.828Z,56.33
2017-09-08T14:56:39.451Z,55.76
2017-09-08T14:59:09.147Z,55.72
2017-09-08T15:01:38.450Z,56.22
2017-09-08T15:04:08.567Z,56.03
2017-09-08T15:06:37.847Z,56.00
2017-09-08T15:09:07.092Z,55.79
2017-09-08T15:11:36.809Z,55.77
2017-09-08T15:14:06.116Z,55.97
2017-09-08T15:16:35.378Z,55.97
2017-09-08T15:19:05.378Z,56.32
2017-09-08T15:21:34.794Z,56.47
2017-09-08T15:24:05.440Z,56.48
2017-09-08T15:26:35.004Z,56.59
2017-09-08T15:29:04.654Z,56.34
2017-09-08T15:31:37.031Z,57.62
2017-09-08T15:34:12.683Z,56.81
2017-09-08T15:36:43.607Z,56.72
2017-09-08T15:39:20.464Z,56.98
2017-09-08T15:41:52.270Z,57.64
2017-09-08T15:44:26.232Z,57.93
2017-09-08T15:47:00.648Z,57.96
2017-09-08T15:49:39.093Z,57.36
2017-09-08T15:52:12.508Z,57.97
2017-09-08T15:54:55.990Z,57.89
2017-09-08T15:57:32.771Z,58.06
2017-09-08T16:00:05.099Z,57.73
2017-09-08T16:02:53.352Z,57.98
2017-09-08T16:05:33.416Z,58.05
2017-09-08T16:08:04.532Z,58.30
2017-09-08T16:10:33.822Z,58.44
2017-09-08T16:13:03.025Z,58.77
2017-09-08T16:15:32.621Z,58.74
2017-09-08T16:18:01.846Z,58.57
2017-09-08T16:20:31.020Z,59.17
2017-09-08T16:23:00.534Z,58.90
2017-09-08T16:25:29.930Z,58.77
2017-09-08T16:27:59.448Z,58.92
2017-09-08T16:30:29.080Z,59.28
2017-09-08T16:32:58.279Z,59.06
2017-09-08T16:35:27.626Z,59.39
2017-09-08T16:37:57.104Z,59.52
2017-09-08T16:40:26.343Z,59.70
2017-09-08T16:42:55.652Z,59.32
2017-09-08T16:45:25.243Z,59.56
2017-09-08T16:47:54.533Z,59.84
2017-09-08T16:50:26.793Z,59.77
2017-09-08T16:52:59.242Z,59.59
2017-09-08T16:55:32.669Z,60.36
2017-09-08T16:58:16.147Z,59.84
2017-09-08T17:01:00.728Z,59.98
2017-09-08T17:03:44.834Z,60.32
2017-09-08T17:06:39.619Z,60.11
2017-09-08T17:09:20.795Z,60.29
2017-09-08T17:11:52.393Z,60.70
2017-09-08T17:14:28.879Z,60.49
2017-09-08T17:17:03.080Z,60.37
2017-09-08T17:19:48.777Z,60.54
2017-09-08T17:22:38.951Z,60.96
2017-09-08T17:25:30.962Z,60.78
2017-09-08T17:28:03.057Z,60.91
2017-09-08T17:31:02.718Z,61.05
2017-09-08T17:33:59.314Z,61.32
2017-09-08T17:36:40.260Z,62.23
2017-09-08T17:39:32.129Z,61.36
2017-09-08T17:42:14.303Z,60.95
2017-09-08T17:44:56.707Z,60.84
2017-09-08T17:47:31.012Z,61.52
2017-09-08T17:50:06.413Z,61.47
2017-09-08T17:52:40.159Z,61.13
2017-09-08T17:55:17.867Z,61.28
2017-09-08T17:58:03.948Z,61.31
2017-09-08T18:00:35.174Z,61.50
2017-09-08T18:03:08.195Z,62.40
2017-09-08T18:05:37.704Z,61.98
2017-09-08T18:08:06.903Z,61.90
2017-09-08T18:10:47.283Z,62.09
2017-09-08T18:13:16.509Z,61.28
2017-09-08T18:15:45.821Z,61.95
2017-09-08T18:18:15.325Z,61.40
2017-09-08T18:20:44.637Z,61.49
2017-09-08T18:23:14.896Z,62.06
2017-09-08T18:25:44.539Z,61.64
2017-09-08T18:28:15.433Z,61.59
2017-09-08T18:30:44.835Z,61.20
2017-09-08T18:33:14.343Z,61.13
2017-09-08T18:35:43.723Z,61.55
2017-09-08T18:38:14.712Z,61.45
2017-09-08T18:40:44.303Z,61.49
2017-09-08T18:43:14.859Z,61.65
2017-09-08T18:45:44.119Z,61.46
2017-09-08T18:48:13.614Z,61.82
2017-09-08T18:50:42.894Z,61.90
2017-09-08T18:53:14.059Z,61.72
2017-09-08T18:55:43.825Z,62.13
2017-09-08T18:58:13.032Z,61.91
2017-09-08T19:00:42.471Z,62.36
2017-09-08T19:03:13.903Z,64.77
2017-09-08T19:05:43.226Z,67.01
2017-09-08T19:08:12.482Z,65.90
2017-09-08T19:10:42.151Z,66.20
2017-09-08T19:13:11.301Z,66.47
2017-09-08T19:15:40.477Z,66.20
2017-09-08T19:18:10.098Z,66.68
2017-09-08T19:20:39.350Z,66.56
2017-09-08T19:23:08.655Z,66.84
2017-09-08T19:25:39.375Z,66.60
2017-09-08T19:28:09.176Z,66.91
2017-09-08T19:30:38.459Z,66.21
2017-09-08T19:33:07.959Z,66.42
2017-09-08T19:35:37.154Z,66.54
2017-09-08T19:38:06.399Z,66.54
2017-09-08T19:40:35.926Z,66.21
2017-09-08T19:43:05.191Z,66.33
2017-09-08T19:45:34.459Z,66.03
2017-09-08T19:48:05.504Z,66.22
2017-09-08T19:50:35.017Z,65.61
2017-09-08T19:53:04.353Z,65.78
2017-09-08T19:55:34.005Z,65.01
2017-09-08T19:58:03.587Z,64.83
2017-09-08T20:00:32.831Z,64.42
2017-09-08T20:03:02.340Z,64.53
2017-09-08T20:05:31.530Z,64.43
2017-09-08T20:08:00.720Z,64.29
2017-09-08T20:10:30.289Z,63.93
2017-09-08T20:12:59.527Z,63.89
2017-09-08T20:15:28.686Z,63.97
2017-09-08T20:17:58.330Z,64.08
2017-09-08T20:20:27.549Z,63.72
2017-09-08T20:22:56.762Z,64.03
2017-09-08T20:25:26.749Z,63.94
2017-09-08T20:27:56.133Z,63.77
2017-09-08T20:30:25.315Z,63.31
2017-09-08T20:32:54.913Z,63.26
2017-09-08T20:35:24.164Z,62.85
2017-09-08T20:37:53.356Z,62.79
2017-09-08T20:40:22.849Z,62.91
2017-09-08T20:42:52.060Z,62.71
2017-09-08T20:45:21.251Z,62.75
2017-09-08T20:47:50.716Z,62.58
2017-09-08T20:50:20.024Z,62.90
2017-09-08T20:52:49.196Z,62.70
2017-09-08T20:55:18.799Z,63.11
2017-09-08T20:57:48.090Z,62.59
2017-09-08T21:00:21.852Z,62.68
2017-09-08T21:02:51.350Z,62.90
2017-09-08T21:05:20.602Z,62.59
2017-09-08T21:07:50.003Z,62.75
2017-09-08T21:10:19.614Z,62.84
2017-09-08T21:12:48.895Z,62.90
2017-09-08T21:15:18.287Z,63.10
2017-09-08T21:17:47.877Z,62.80
2017-09-08T21:20:17.075Z,62.79
2017-09-08T21:22:46.268Z,63.04
2017-09-08T21:25:15.748Z,62.50
2017-09-08T21:27:44.951Z,62.69
2017-09-08T21:30:16.077Z,62.76
2017-09-08T21:32:45.523Z,63.06
2017-09-08T21:35:14.767Z,63.39
2017-09-08T21:37:44.311Z,63.33
2017-09-08T21:40:15.664Z,62.78
2017-09-08T21:42:46.147Z,62.73
2017-09-08T21:45:16.429Z,63.01
2017-09-08T21:47:47.163Z,62.55
2017-09-08T21:50:16.318Z,62.71
2017-09-08T21:52:45.591Z,63.08
2017-09-08T21:55:16.711Z,62.98
2017-09-08T21:57:46.226Z,62.77
2017-09-08T22:00:15.702Z,63.05
2017-09-08T22:02:45.339Z,63.37
2017-09-08T22:05:15.254Z,63.34
2017-09-08T22:07:44.598Z,63.20
2017-09-08T22:10:14.391Z,62.88
2017-09-08T22:12:44.115Z,63.18
2017-09-08T22:15:13.347Z,63.21
2017-09-08T22:17:43.426Z,63.24
2017-09-08T22:20:14.295Z,63.24
2017-09-08T22:22:43.916Z,62.98
2017-09-08T22:25:13.416Z,63.20
2017-09-08T22:27:42.676Z,63.45
2017-09-08T22:30:12.391Z,63.17
2017-09-08T22:32:43.752Z,63.23
2017-09-08T22:35:14.404Z,63.12
2017-09-08T22:37:45.196Z,63.33
2017-09-08T22:40:15.049Z,63.28
2017-09-08T22:42:45.040Z,63.47
2017-09-08T22:45:15.604Z,63.53
2017-09-08T22:47:44.858Z,63.42
2017-09-08T22:50:15.662Z,63.35
2017-09-08T22:52:45.266Z,63.37
2017-09-08T22:55:14.454Z,63.41
2017-09-08T22:57:43.653Z,63.10
2017-09-08T23:00:13.293Z,63.20
2017-09-08T23:02:42.502Z,63.80
2017-09-08T23:05:11.692Z,63.32
2017-09-08T23:07:41.151Z,62.93
2017-09-08T23:10:12.237Z,62.96
2017-09-08T23:12:41.414Z,63.25
2017-09-08T23:15:12.116Z,62.95
2017-09-08T23:17:41.274Z,63.64
2017-09-08T23:20:12.233Z,64.04
2017-09-08T23:22:41.727Z,63.84
2017-09-08T23:25:11.880Z,63.94
2017-09-08T23:27:41.119Z,64.02
2017-09-08T23:30:11.928Z,64.00
2017-09-08T23:32:41.205Z,63.64
2017-09-08T23:35:11.583Z,63.71
2017-09-08T23:37:41.583Z,63.44
2017-09-08T23:40:12.020Z,63.36
2017-09-08T23:42:41.590Z,63.59
2017-09-08T23:45:12.479Z,63.11
2017-09-08T23:47:42.445Z,62.78
2017-09-08T23:50:15.145Z,62.48
2017-09-08T23:52:44.315Z,62.20
2017-09-08T23:55:15.887Z,62.14
2017-09-08T23:57:45.467Z,62.28
